sensor_id;sensor_type;location;lat;lon;timestamp;P1;durP1;ratioP1;P2;durP2;ratioP2
17686;SDS011;8962;52.538;13.266;2022-11-20T00:01:05;21.75;;;11.38;;
17686;SDS011;8962;52.538;13.266;2022-11-20T00:03:34;19.73;;;11.18;;
17686;SDS011;8962;52.538;13.266;2022-11-20T00:06:02;20.27;;;10.98;;
17686;SDS011;8962;52.538;13.266;2022-11-20T00:08:32;20.92;;;11.25;;
17686;SDS011;8962;52.538;13.266;2022-11-20T00:11:03;21.65;;;11.27;;
17686;SDS011;8962;52.538;13.266;2022-11-20T00:13:32;21.17;;;12.02;;
17686;SDS011;8962;52.538;13.266;2022-11-20T00:15:59;20.88;;;11.55;;
17686;SDS011;8962;52.538;13.266;2022-11-20T00:18:30;21.45;;;11.65;;
17686;SDS011;8962;52.538;13.266;2022-11-20T00:21:01;23.88;;;11.85;;
17686;SDS011;8962;52.538;13.266;2022-11-20T00:23:29;19.63;;;11.77;;
17686;SDS011;8962;52.538;13.266;2022-11-20T00:25:56;21.55;;;11.07;;
17686;SDS011;8962;52.538;13.266;2022-11-20T00:28:28;23.02;;;11.25;;
17686;SDS011;8962;52.538;13.266;2022-11-20T00:31:00;20.50;;;11.73;;
17686;SDS011;8962;52.538;13.266;2022-11-20T00:33:28;21.55;;;12.00;;
17686;SDS011;8962;52.538;13.266;2022-11-20T00:36:01;19.98;;;11.35;;
17686;SDS011;8962;52.538;13.266;2022-11-20T00:38:29;19.20;;;11.30;;
17686;SDS011;8962;52.538;13.266;2022-11-20T00:40:57;21.20;;;11.40;;
17686;SDS011;8962;52.538;13.266;2022-11-20T00:43:25;19.85;;;11.52;;
17686;SDS011;8962;52.538;13.266;2022-11-20T00:45:56;18.00;;;10.75;;
17686;SDS011;8962;52.538;13.266;2022-11-20T00:48:24;17.67;;;11.10;;
17686;SDS011;8962;52.538;13.266;2022-11-20T00:50:52;18.92;;;11.30;;
17686;SDS011;8962;52.538;13.266;2022-11-20T00:53:20;19.02;;;11.10;;
17686;SDS011;8962;52.538;13.266;2022-11-20T00:55:54;21.15;;;11.48;;
17686;SDS011;8962;52.538;13.266;2022-11-20T00:58:22;15.45;;;10.40;;
17686;SDS011;8962;52.538;13.266;2022-11-20T01:00:52;17.83;;;11.13;;
17686;SDS011;8962;52.538;13.266;2022-11-20T01:03:19;17.95;;;10.38;;
17686;SDS011;8962;52.538;13.266;2022-11-20T01:05:50;20.48;;;10.57;;
17686;SDS011;8962;52.538;13.266;2022-11-20T01:08:17;17.75;;;11.07;;
17686;SDS011;8962;52.538;13.266;2022-11-20T01:10:46;21.10;;;10.88;;
17686;SDS011;8962;52.538;13.266;2022-11-20T01:13:14;19.45;;;11.60;;
17686;SDS011;8962;52.538;13.266;2022-11-20T01:16:16;16.85;;;10.25;;
17686;SDS011;8962;52.538;13.266;2022-11-20T01:18:45;18.40;;;11.13;;
17686;SDS011;8962;52.538;13.266;2022-11-20T01:21:14;20.90;;;11.32;;
17686;SDS011;8962;52.538;13.266;2022-11-20T01:23:43;20.88;;;11.85;;
17686;SDS011;8962;52.538;13.266;2022-11-20T01:26:12;17.52;;;10.48;;
17686;SDS011;8962;52.538;13.266;2022-11-20T01:28:42;19.05;;;10.45;;
17686;SDS011;8962;52.538;13.266;2022-11-20T01:31:13;21.15;;;11.32;;
17686;SDS011;8962;52.538;13.266;2022-11-20T01:33:43;24.70;;;12.65;;
17686;SDS011;8962;52.538;13.266;2022-11-20T01:36:12;18.50;;;10.98;;
17686;SDS011;8962;52.538;13.266;2022-11-20T01:38:43;21.25;;;11.43;;
17686;SDS011;8962;52.538;13.266;2022-11-20T01:41:14;20.45;;;11.05;;
17686;SDS011;8962;52.538;13.266;2022-11-20T01:43:56;19.60;;;11.85;;
17686;SDS011;8962;52.538;13.266;2022-11-20T01:46:24;21.23;;;12.23;;
17686;SDS011;8962;52.538;13.266;2022-11-20T01:48:55;20.35;;;11.57;;
17686;SDS011;8962;52.538;13.266;2022-11-20T01:51:29;19.10;;;11.23;;
17686;SDS011;8962;52.538;13.266;2022-11-20T01:54:00;19.77;;;11.82;;
17686;SDS011;8962;52.538;13.266;2022-11-20T01:56:33;21.52;;;12.18;;
17686;SDS011;8962;52.538;13.266;2022-11-20T01:59:06;20.20;;;11.40;;
17686;SDS011;8962;52.538;13.266;2022-11-20T02:01:38;20.65;;;12.40;;
17686;SDS011;8962;52.538;13.266;2022-11-20T02:04:06;19.48;;;11.20;;
17686;SDS011;8962;52.538;13.266;2022-11-20T02:06:38;19.77;;;11.75;;
17686;SDS011;8962;52.538;13.266;2022-11-20T02:09:10;22.98;;;12.73;;
17686;SDS011;8962;52.538;13.266;2022-11-20T02:11:37;23.30;;;12.45;;
17686;SDS011;8962;52.538;13.266;2022-11-20T02:14:06;20.48;;;11.88;;
17686;SDS011;8962;52.538;13.266;2022-11-20T02:16:33;21.25;;;12.20;;
17686;SDS011;8962;52.538;13.266;2022-11-20T02:19:05;20.50;;;12.60;;
17686;SDS011;8962;52.538;13.266;2022-11-20T02:21:40;21.33;;;12.27;;
17686;SDS011;8962;52.538;13.266;2022-11-20T02:24:15;21.52;;;12.63;;
17686;SDS011;8962;52.538;13.266;2022-11-20T02:26:46;23.52;;;12.68;;
17686;SDS011;8962;52.538;13.266;2022-11-20T02:29:19;21.90;;;12.57;;
17686;SDS011;8962;52.538;13.266;2022-11-20T02:31:50;21.60;;;12.77;;
17686;SDS011;8962;52.538;13.266;2022-11-20T02:34:19;22.23;;;12.85;;
17686;SDS011;8962;52.538;13.266;2022-11-20T02:36:46;23.75;;;13.32;;
17686;SDS011;8962;52.538;13.266;2022-11-20T02:39:17;20.40;;;12.45;;
17686;SDS011;8962;52.538;13.266;2022-11-20T02:41:46;24.20;;;13.93;;
17686;SDS011;8962;52.538;13.266;2022-11-20T02:44:15;20.92;;;13.25;;
17686;SDS011;8962;52.538;13.266;2022-11-20T02:46:42;23.30;;;13.75;;
17686;SDS011;8962;52.538;13.266;2022-11-20T02:49:09;24.90;;;13.63;;
17686;SDS011;8962;52.538;13.266;2022-11-20T02:51:37;26.25;;;14.23;;
17686;SDS011;8962;52.538;13.266;2022-11-20T02:54:04;23.70;;;13.68;;
17686;SDS011;8962;52.538;13.266;2022-11-20T02:56:32;25.48;;;14.07;;
17686;SDS011;8962;52.538;13.266;2022-11-20T02:58:59;22.02;;;13.40;;
17686;SDS011;8962;52.538;13.266;2022-11-20T03:01:27;25.30;;;13.48;;
17686;SDS011;8962;52.538;13.266;2022-11-20T03:03:55;23.98;;;13.68;;
17686;SDS011;8962;52.538;13.266;2022-11-20T03:06:22;24.80;;;14.55;;
17686;SDS011;8962;52.538;13.266;2022-11-20T03:08:50;25.33;;;14.50;;
17686;SDS011;8962;52.538;13.266;2022-11-20T03:11:17;24.13;;;14.38;;
17686;SDS011;8962;52.538;13.266;2022-11-20T03:13:46;23.38;;;13.60;;
17686;SDS011;8962;52.538;13.266;2022-11-20T03:16:15;24.05;;;13.20;;
17686;SDS011;8962;52.538;13.266;2022-11-20T03:18:43;22.80;;;14.30;;
17686;SDS011;8962;52.538;13.266;2022-11-20T03:21:11;23.30;;;13.20;;
17686;SDS011;8962;52.538;13.266;2022-11-20T03:23:39;24.08;;;13.60;;
17686;SDS011;8962;52.538;13.266;2022-11-20T03:26:07;26.23;;;14.18;;
17686;SDS011;8962;52.538;13.266;2022-11-20T03:28:39;23.38;;;13.48;;
17686;SDS011;8962;52.538;13.266;2022-11-20T03:31:09;24.30;;;13.88;;
17686;SDS011;8962;52.538;13.266;2022-11-20T03:33:40;22.40;;;13.73;;
17686;SDS011;8962;52.538;13.266;2022-11-20T03:36:10;24.13;;;13.85;;
17686;SDS011;8962;52.538;13.266;2022-11-20T03:38:39;23.27;;;14.05;;
17686;SDS011;8962;52.538;13.266;2022-11-20T03:41:08;24.92;;;13.90;;
17686;SDS011;8962;52.538;13.266;2022-11-20T03:43:36;25.13;;;13.90;;
17686;SDS011;8962;52.538;13.266;2022-11-20T03:46:06;24.63;;;14.30;;
17686;SDS011;8962;52.538;13.266;2022-11-20T03:48:35;23.77;;;13.02;;
17686;SDS011;8962;52.538;13.266;2022-11-20T03:51:06;23.27;;;14.07;;
17686;SDS011;8962;52.538;13.266;2022-11-20T03:53:34;23.20;;;13.48;;
17686;SDS011;8962;52.538;13.266;2022-11-20T03:56:02;23.15;;;13.82;;
17686;SDS011;8962;52.538;13.266;2022-11-20T03:58:30;25.25;;;14.00;;
17686;SDS011;8962;52.538;13.266;2022-11-20T04:00:57;23.65;;;13.52;;
17686;SDS011;8962;52.538;13.266;2022-11-20T04:03:26;24.55;;;14.57;;
17686;SDS011;8962;52.538;13.266;2022-11-20T04:05:56;22.50;;;13.82;;
17686;SDS011;8962;52.538;13.266;2022-11-20T04:08:28;23.05;;;13.82;;
17686;SDS011;8962;52.538;13.266;2022-11-20T04:10:56;27.33;;;14.35;;
17686;SDS011;8962;52.538;13.266;2022-11-20T04:13:23;24.20;;;14.07;;
17686;SDS011;8962;52.538;13.266;2022-11-20T04:15:50;31.58;;;15.18;;
17686;SDS011;8962;52.538;13.266;2022-11-20T04:18:18;25.92;;;14.32;;
17686;SDS011;8962;52.538;13.266;2022-11-20T04:20:48;23.80;;;14.43;;
17686;SDS011;8962;52.538;13.266;2022-11-20T04:23:15;27.70;;;14.40;;
17686;SDS011;8962;52.538;13.266;2022-11-20T04:25:43;25.52;;;15.18;;
17686;SDS011;8962;52.538;13.266;2022-11-20T04:28:10;28.02;;;15.40;;
17686;SDS011;8962;52.538;13.266;2022-11-20T04:30:38;25.13;;;14.45;;
17686;SDS011;8962;52.538;13.266;2022-11-20T04:33:06;25.17;;;13.82;;
17686;SDS011;8962;52.538;13.266;2022-11-20T04:35:33;26.05;;;15.07;;
17686;SDS011;8962;52.538;13.266;2022-11-20T04:38:02;26.50;;;15.20;;
17686;SDS011;8962;52.538;13.266;2022-11-20T04:40:30;27.70;;;15.73;;
17686;SDS011;8962;52.538;13.266;2022-11-20T04:42:58;26.00;;;15.38;;
17686;SDS011;8962;52.538;13.266;2022-11-20T04:45:25;27.55;;;15.48;;
17686;SDS011;8962;52.538;13.266;2022-11-20T04:47:52;25.38;;;14.20;;
17686;SDS011;8962;52.538;13.266;2022-11-20T04:50:19;24.40;;;14.35;;
17686;SDS011;8962;52.538;13.266;2022-11-20T04:52:46;23.80;;;13.57;;
17686;SDS011;8962;52.538;13.266;2022-11-20T04:55:17;24.80;;;14.90;;
17686;SDS011;8962;52.538;13.266;2022-11-20T04:57:44;24.55;;;14.43;;
17686;SDS011;8962;52.538;13.266;2022-11-20T05:00:12;24.95;;;14.48;;
17686;SDS011;8962;52.538;13.266;2022-11-20T05:02:41;28.58;;;14.88;;
17686;SDS011;8962;52.538;13.266;2022-11-20T05:05:08;22.63;;;14.35;;
17686;SDS011;8962;52.538;13.266;2022-11-20T05:07:35;26.55;;;14.98;;
17686;SDS011;8962;52.538;13.266;2022-11-20T05:10:03;26.15;;;14.63;;
17686;SDS011;8962;52.538;13.266;2022-11-20T05:12:32;26.23;;;15.07;;
17686;SDS011;8962;52.538;13.266;2022-11-20T05:14:59;24.23;;;14.35;;
17686;SDS011;8962;52.538;13.266;2022-11-20T05:17:26;27.60;;;14.93;;
17686;SDS011;8962;52.538;13.266;2022-11-20T05:19:56;26.65;;;15.27;;
17686;SDS011;8962;52.538;13.266;2022-11-20T05:22:23;23.10;;;14.10;;
17686;SDS011;8962;52.538;13.266;2022-11-20T05:24:51;23.65;;;13.93;;
17686;SDS011;8962;52.538;13.266;2022-11-20T05:27:18;23.85;;;14.13;;
17686;SDS011;8962;52.538;13.266;2022-11-20T05:29:47;24.42;;;14.30;;
17686;SDS011;8962;52.538;13.266;2022-11-20T05:32:16;26.63;;;14.27;;
17686;SDS011;8962;52.538;13.266;2022-11-20T05:34:44;24.73;;;14.45;;
17686;SDS011;8962;52.538;13.266;2022-11-20T05:37:11;24.88;;;14.77;;
17686;SDS011;8962;52.538;13.266;2022-11-20T05:39:38;24.67;;;13.25;;
17686;SDS011;8962;52.538;13.266;2022-11-20T05:42:06;26.70;;;14.60;;
17686;SDS011;8962;52.538;13.266;2022-11-20T05:44:52;26.05;;;14.70;;
17686;SDS011;8962;52.538;13.266;2022-11-20T05:47:19;24.27;;;14.43;;
17686;SDS011;8962;52.538;13.266;2022-11-20T05:49:46;28.33;;;15.27;;
17686;SDS011;8962;52.538;13.266;2022-11-20T05:52:14;26.60;;;15.15;;
17686;SDS011;8962;52.538;13.266;2022-11-20T05:54:41;25.95;;;14.65;;
17686;SDS011;8962;52.538;13.266;2022-11-20T05:57:09;26.02;;;14.73;;
17686;SDS011;8962;52.538;13.266;2022-11-20T05:59:36;26.15;;;15.18;;
17686;SDS011;8962;52.538;13.266;2022-11-20T06:02:05;27.23;;;15.13;;
17686;SDS011;8962;52.538;13.266;2022-11-20T06:04:32;25.45;;;14.95;;
17686;SDS011;8962;52.538;13.266;2022-11-20T06:06:59;24.23;;;14.25;;
17686;SDS011;8962;52.538;13.266;2022-11-20T06:09:26;25.17;;;14.02;;
17686;SDS011;8962;52.538;13.266;2022-11-20T06:11:53;28.30;;;15.57;;
17686;SDS011;8962;52.538;13.266;2022-11-20T06:14:21;26.95;;;14.23;;
17686;SDS011;8962;52.538;13.266;2022-11-20T06:16:48;26.27;;;13.95;;
17686;SDS011;8962;52.538;13.266;2022-11-20T06:19:16;27.38;;;14.60;;
17686;SDS011;8962;52.538;13.266;2022-11-20T06:21:43;25.17;;;13.98;;
17686;SDS011;8962;52.538;13.266;2022-11-20T06:24:10;23.20;;;13.75;;
17686;SDS011;8962;52.538;13.266;2022-11-20T06:26:38;24.67;;;14.02;;
17686;SDS011;8962;52.538;13.266;2022-11-20T06:29:05;25.02;;;14.57;;
17686;SDS011;8962;52.538;13.266;2022-11-20T06:31:32;25.38;;;14.07;;
17686;SDS011;8962;52.538;13.266;2022-11-20T06:34:02;25.58;;;14.50;;
17686;SDS011;8962;52.538;13.266;2022-11-20T06:36:32;24.73;;;13.80;;
17686;SDS011;8962;52.538;13.266;2022-11-20T06:39:00;22.70;;;13.57;;
17686;SDS011;8962;52.538;13.266;2022-11-20T06:41:28;26.25;;;14.30;;
17686;SDS011;8962;52.538;13.266;2022-11-20T06:43:56;24.50;;;13.65;;
17686;SDS011;8962;52.538;13.266;2022-11-20T06:46:24;24.50;;;14.32;;
17686;SDS011;8962;52.538;13.266;2022-11-20T06:48:51;25.27;;;14.15;;
17686;SDS011;8962;52.538;13.266;2022-11-20T06:51:18;27.40;;;15.13;;
17686;SDS011;8962;52.538;13.266;2022-11-20T06:53:48;25.17;;;14.82;;
17686;SDS011;8962;52.538;13.266;2022-11-20T06:56:15;25.42;;;14.50;;
17686;SDS011;8962;52.538;13.266;2022-11-20T06:58:43;24.02;;;14.20;;
17686;SDS011;8962;52.538;13.266;2022-11-20T07:01:10;26.05;;;14.40;;
17686;SDS011;8962;52.538;13.266;2022-11-20T07:03:38;28.85;;;14.52;;
17686;SDS011;8962;52.538;13.266;2022-11-20T07:06:08;45.90;;;19.92;;
17686;SDS011;8962;52.538;13.266;2022-11-20T07:08:36;34.13;;;16.40;;
17686;SDS011;8962;52.538;13.266;2022-11-20T07:11:05;27.92;;;14.88;;
17686;SDS011;8962;52.538;13.266;2022-11-20T07:13:33;26.48;;;14.55;;
17686;SDS011;8962;52.538;13.266;2022-11-20T07:16:00;24.58;;;14.27;;
17686;SDS011;8962;52.538;13.266;2022-11-20T07:18:28;25.90;;;15.23;;
17686;SDS011;8962;52.538;13.266;2022-11-20T07:20:59;23.95;;;14.43;;
17686;SDS011;8962;52.538;13.266;2022-11-20T07:23:27;25.02;;;14.38;;
17686;SDS011;8962;52.538;13.266;2022-11-20T07:25:54;26.73;;;14.35;;
17686;SDS011;8962;52.538;13.266;2022-11-20T07:28:22;26.67;;;14.65;;
17686;SDS011;8962;52.538;13.266;2022-11-20T07:30:51;24.13;;;13.77;;
17686;SDS011;8962;52.538;13.266;2022-11-20T07:33:19;27.95;;;14.77;;
17686;SDS011;8962;52.538;13.266;2022-11-20T07:35:47;27.80;;;14.98;;
17686;SDS011;8962;52.538;13.266;2022-11-20T07:38:15;26.98;;;14.88;;
17686;SDS011;8962;52.538;13.266;2022-11-20T07:40:44;26.52;;;14.65;;
17686;SDS011;8962;52.538;13.266;2022-11-20T07:43:14;25.67;;;15.23;;
17686;SDS011;8962;52.538;13.266;2022-11-20T07:45:43;29.15;;;16.20;;
17686;SDS011;8962;52.538;13.266;2022-11-20T07:48:09;26.33;;;14.43;;
17686;SDS011;8962;52.538;13.266;2022-11-20T07:50:39;27.65;;;14.85;;
17686;SDS011;8962;52.538;13.266;2022-11-20T07:53:06;27.55;;;14.57;;
17686;SDS011;8962;52.538;13.266;2022-11-20T07:55:35;24.27;;;14.23;;
17686;SDS011;8962;52.538;13.266;2022-11-20T07:58:03;25.08;;;14.70;;
17686;SDS011;8962;52.538;13.266;2022-11-20T08:00:32;24.73;;;14.70;;
17686;SDS011;8962;52.538;13.266;2022-11-20T08:03:00;25.17;;;14.98;;
17686;SDS011;8962;52.538;13.266;2022-11-20T08:05:29;26.80;;;15.07;;
17686;SDS011;8962;52.538;13.266;2022-11-20T08:07:58;26.20;;;14.32;;
17686;SDS011;8962;52.538;13.266;2022-11-20T08:10:26;26.15;;;14.55;;
17686;SDS011;8962;52.538;13.266;2022-11-20T08:12:53;25.95;;;14.60;;
17686;SDS011;8962;52.538;13.266;2022-11-20T08:15:39;26.00;;;14.90;;
17686;SDS011;8962;52.538;13.266;2022-11-20T08:18:10;27.33;;;15.18;;
17686;SDS011;8962;52.538;13.266;2022-11-20T08:20:38;25.95;;;14.05;;
17686;SDS011;8962;52.538;13.266;2022-11-20T08:23:05;28.42;;;14.43;;
17686;SDS011;8962;52.538;13.266;2022-11-20T08:25:35;24.20;;;13.65;;
17686;SDS011;8962;52.538;13.266;2022-11-20T08:28:04;28.58;;;15.55;;
17686;SDS011;8962;52.538;13.266;2022-11-20T08:30:33;25.48;;;14.10;;
17686;SDS011;8962;52.538;13.266;2022-11-20T08:33:01;29.17;;;15.27;;
17686;SDS011;8962;52.538;13.266;2022-11-20T08:35:33;28.70;;;15.98;;
17686;SDS011;8962;52.538;13.266;2022-11-20T08:38:01;27.40;;;14.30;;
17686;SDS011;8962;52.538;13.266;2022-11-20T08:40:28;23.73;;;14.00;;
17686;SDS011;8962;52.538;13.266;2022-11-20T08:42:56;26.15;;;15.18;;
17686;SDS011;8962;52.538;13.266;2022-11-20T08:45:23;30.80;;;15.50;;
17686;SDS011;8962;52.538;13.266;2022-11-20T08:47:51;27.90;;;14.80;;
17686;SDS011;8962;52.538;13.266;2022-11-20T08:50:19;29.58;;;15.35;;
17686;SDS011;8962;52.538;13.266;2022-11-20T08:52:50;28.13;;;15.18;;
17686;SDS011;8962;52.538;13.266;2022-11-20T08:55:18;28.45;;;15.02;;
17686;SDS011;8962;52.538;13.266;2022-11-20T08:57:45;30.42;;;14.95;;
17686;SDS011;8962;52.538;13.266;2022-11-20T09:00:14;28.95;;;14.73;;
17686;SDS011;8962;52.538;13.266;2022-11-20T09:02:42;32.40;;;15.43;;
17686;SDS011;8962;52.538;13.266;2022-11-20T09:05:09;24.58;;;14.65;;
17686;SDS011;8962;52.538;13.266;2022-11-20T09:07:39;29.48;;;15.43;;
17686;SDS011;8962;52.538;13.266;2022-11-20T09:10:10;29.38;;;14.98;;
17686;SDS011;8962;52.538;13.266;2022-11-20T09:12:37;31.25;;;15.52;;
17686;SDS011;8962;52.538;13.266;2022-11-20T09:15:05;28.83;;;14.98;;
17686;SDS011;8962;52.538;13.266;2022-11-20T09:17:34;29.48;;;15.15;;
17686;SDS011;8962;52.538;13.266;2022-11-20T09:20:02;29.40;;;14.82;;
17686;SDS011;8962;52.538;13.266;2022-11-20T09:22:34;28.23;;;15.00;;
17686;SDS011;8962;52.538;13.266;2022-11-20T09:25:05;26.30;;;14.32;;
17686;SDS011;8962;52.538;13.266;2022-11-20T09:27:34;26.65;;;14.77;;
17686;SDS011;8962;52.538;13.266;2022-11-20T09:30:01;28.00;;;14.70;;
17686;SDS011;8962;52.538;13.266;2022-11-20T09:32:29;29.42;;;14.68;;
17686;SDS011;8962;52.538;13.266;2022-11-20T09:34:56;29.17;;;14.35;;
17686;SDS011;8962;52.538;13.266;2022-11-20T09:37:24;28.60;;;14.50;;
17686;SDS011;8962;52.538;13.266;2022-11-20T09:39:51;27.58;;;14.45;;
17686;SDS011;8962;52.538;13.266;2022-11-20T09:42:22;27.20;;;14.98;;
17686;SDS011;8962;52.538;13.266;2022-11-20T09:45:21;25.42;;;14.00;;
17686;SDS011;8962;52.538;13.266;2022-11-20T09:48:00;24.45;;;13.40;;
17686;SDS011;8962;52.538;13.266;2022-11-20T09:50:45;22.95;;;13.43;;
17686;SDS011;8962;52.538;13.266;2022-11-20T09:53:19;20.17;;;12.23;;
17686;SDS011;8962;52.538;13.266;2022-11-20T09:55:53;22.05;;;13.27;;
17686;SDS011;8962;52.538;13.266;2022-11-20T09:58:24;26.60;;;14.00;;
17686;SDS011;8962;52.538;13.266;2022-11-20T10:01:03;22.65;;;12.98;;
17686;SDS011;8962;52.538;13.266;2022-11-20T10:03:39;27.40;;;13.32;;
17686;SDS011;8962;52.538;13.266;2022-11-20T10:06:17;21.33;;;12.57;;
17686;SDS011;8962;52.538;13.266;2022-11-20T10:08:50;26.65;;;13.15;;
17686;SDS011;8962;52.538;13.266;2022-11-20T10:11:24;23.48;;;13.43;;
17686;SDS011;8962;52.538;13.266;2022-11-20T10:14:00;22.23;;;12.63;;
17686;SDS011;8962;52.538;13.266;2022-11-20T10:16:40;28.52;;;14.75;;
17686;SDS011;8962;52.538;13.266;2022-11-20T10:19:21;22.83;;;13.27;;
17686;SDS011;8962;52.538;13.266;2022-11-20T10:22:01;26.65;;;14.35;;
17686;SDS011;8962;52.538;13.266;2022-11-20T10:24:46;24.75;;;12.90;;
17686;SDS011;8962;52.538;13.266;2022-11-20T10:27:32;21.58;;;12.10;;
17686;SDS011;8962;52.538;13.266;2022-11-20T10:30:12;21.20;;;11.43;;
17686;SDS011;8962;52.538;13.266;2022-11-20T10:32:43;24.50;;;13.23;;
17686;SDS011;8962;52.538;13.266;2022-11-20T10:35:18;23.63;;;13.02;;
17686;SDS011;8962;52.538;13.266;2022-11-20T10:37:48;21.75;;;12.63;;
17686;SDS011;8962;52.538;13.266;2022-11-20T10:40:21;28.70;;;14.18;;
17686;SDS011;8962;52.538;13.266;2022-11-20T10:42:55;21.55;;;11.98;;
17686;SDS011;8962;52.538;13.266;2022-11-20T10:45:44;23.20;;;12.45;;
17686;SDS011;8962;52.538;13.266;2022-11-20T10:48:21;26.67;;;12.63;;
17686;SDS011;8962;52.538;13.266;2022-11-20T10:50:55;24.98;;;12.85;;
17686;SDS011;8962;52.538;13.266;2022-11-20T10:56:31;25.48;;;12.55;;
17686;SDS011;8962;52.538;13.266;2022-11-20T10:59:12;22.80;;;12.40;;
17686;SDS011;8962;52.538;13.266;2022-11-20T11:02:15;26.45;;;12.95;;
17686;SDS011;8962;52.538;13.266;2022-11-20T11:04:47;20.23;;;11.95;;
17686;SDS011;8962;52.538;13.266;2022-11-20T11:07:19;18.58;;;11.38;;
17686;SDS011;8962;52.538;13.266;2022-11-20T11:09:50;23.15;;;11.45;;
17686;SDS011;8962;52.538;13.266;2022-11-20T11:12:19;23.15;;;11.68;;
17686;SDS011;8962;52.538;13.266;2022-11-20T11:14:49;22.63;;;12.85;;
17686;SDS011;8962;52.538;13.266;2022-11-20T11:17:22;17.70;;;11.25;;
17686;SDS011;8962;52.538;13.266;2022-11-20T11:20:02;17.83;;;11.13;;
17686;SDS011;8962;52.538;13.266;2022-11-20T11:22:32;17.65;;;11.05;;
17686;SDS011;8962;52.538;13.266;2022-11-20T11:25:01;20.98;;;11.73;;
17686;SDS011;8962;52.538;13.266;2022-11-20T11:27:28;20.90;;;12.25;;
17686;SDS011;8962;52.538;13.266;2022-11-20T11:30:03;18.30;;;11.70;;
17686;SDS011;8962;52.538;13.266;2022-11-20T11:32:39;20.30;;;11.80;;
17686;SDS011;8962;52.538;13.266;2022-11-20T11:35:19;20.48;;;11.30;;
17686;SDS011;8962;52.538;13.266;2022-11-20T11:37:48;23.73;;;12.70;;
17686;SDS011;8962;52.538;13.266;2022-11-20T11:40:16;61.13;;;25.20;;
17686;SDS011;8962;52.538;13.266;2022-11-20T11:42:46;59.75;;;27.48;;
17686;SDS011;8962;52.538;13.266;2022-11-20T11:45:19;62.47;;;28.27;;
17686;SDS011;8962;52.538;13.266;2022-11-20T11:47:47;30.65;;;14.82;;
17686;SDS011;8962;52.538;13.266;2022-11-20T11:50:21;29.02;;;13.13;;
17686;SDS011;8962;52.538;13.266;2022-11-20T11:52:58;26.73;;;13.15;;
17686;SDS011;8962;52.538;13.266;2022-11-20T11:55:33;22.55;;;13.15;;
17686;SDS011;8962;52.538;13.266;2022-11-20T11:58:08;23.30;;;11.93;;
17686;SDS011;8962;52.538;13.266;2022-11-20T12:00:41;18.45;;;11.23;;
17686;SDS011;8962;52.538;13.266;2022-11-20T12:03:17;21.15;;;11.80;;
17686;SDS011;8962;52.538;13.266;2022-11-20T12:05:50;19.65;;;11.38;;
17686;SDS011;8962;52.538;13.266;2022-11-20T12:08:25;20.73;;;11.13;;
17686;SDS011;8962;52.538;13.266;2022-11-20T12:10:59;19.10;;;11.10;;
17686;SDS011;8962;52.538;13.266;2022-11-20T12:13:41;21.38;;;11.50;;
17686;SDS011;8962;52.538;13.266;2022-11-20T12:16:13;21.27;;;11.50;;
17686;SDS011;8962;52.538;13.266;2022-11-20T12:18:41;21.33;;;11.38;;
17686;SDS011;8962;52.538;13.266;2022-11-20T12:21:17;17.13;;;10.88;;
17686;SDS011;8962;52.538;13.266;2022-11-20T12:23:56;19.73;;;11.15;;
17686;SDS011;8962;52.538;13.266;2022-11-20T12:26:58;18.95;;;10.18;;
17686;SDS011;8962;52.538;13.266;2022-11-20T12:29:38;17.60;;;10.35;;
17686;SDS011;8962;52.538;13.266;2022-11-20T12:32:23;20.58;;;10.52;;
17686;SDS011;8962;52.538;13.266;2022-11-20T12:35:14;18.40;;;10.18;;
17686;SDS011;8962;52.538;13.266;2022-11-20T12:38:03;16.60;;;9.88;;
17686;SDS011;8962;52.538;13.266;2022-11-20T12:40:49;16.27;;;9.48;;
17686;SDS011;8962;52.538;13.266;2022-11-20T12:43:22;18.00;;;9.25;;
17686;SDS011;8962;52.538;13.266;2022-11-20T12:46:16;15.02;;;9.50;;
17686;SDS011;8962;52.538;13.266;2022-11-20T12:49:13;16.88;;;9.85;;
17686;SDS011;8962;52.538;13.266;2022-11-20T12:51:58;16.05;;;8.90;;
17686;SDS011;8962;52.538;13.266;2022-11-20T12:57:40;19.70;;;10.00;;
17686;SDS011;8962;52.538;13.266;2022-11-20T13:00:16;19.67;;;10.50;;
17686;SDS011;8962;52.538;13.266;2022-11-20T13:05:47;17.70;;;10.40;;
17686;SDS011;8962;52.538;13.266;2022-11-20T13:08:22;19.15;;;10.77;;
17686;SDS011;8962;52.538;13.266;2022-11-20T13:10:54;21.05;;;11.02;;
17686;SDS011;8962;52.538;13.266;2022-11-20T13:13:33;24.92;;;10.75;;
17686;SDS011;8962;52.538;13.266;2022-11-20T13:16:10;23.65;;;11.20;;
17686;SDS011;8962;52.538;13.266;2022-11-20T13:18:43;20.10;;;10.57;;
17686;SDS011;8962;52.538;13.266;2022-11-20T13:21:14;25.95;;;11.05;;
17686;SDS011;8962;52.538;13.266;2022-11-20T13:23:44;24.88;;;11.65;;
17686;SDS011;8962;52.538;13.266;2022-11-20T13:26:18;22.30;;;11.88;;
17686;SDS011;8962;52.538;13.266;2022-11-20T13:28:47;19.33;;;9.95;;
17686;SDS011;8962;52.538;13.266;2022-11-20T13:31:28;16.48;;;9.40;;
17686;SDS011;8962;52.538;13.266;2022-11-20T13:33:58;16.85;;;10.02;;
17686;SDS011;8962;52.538;13.266;2022-11-20T13:36:28;19.88;;;10.73;;
17686;SDS011;8962;52.538;13.266;2022-11-20T13:38:57;24.33;;;13.20;;
17686;SDS011;8962;52.538;13.266;2022-11-20T13:41:28;41.45;;;19.00;;
17686;SDS011;8962;52.538;13.266;2022-11-20T13:43:59;19.27;;;10.77;;
17686;SDS011;8962;52.538;13.266;2022-11-20T13:46:37;22.67;;;10.95;;
17686;SDS011;8962;52.538;13.266;2022-11-20T13:49:06;21.25;;;11.10;;
17686;SDS011;8962;52.538;13.266;2022-11-20T13:51:39;21.90;;;10.73;;
17686;SDS011;8962;52.538;13.266;2022-11-20T13:57:18;20.88;;;10.57;;
17686;SDS011;8962;52.538;13.266;2022-11-20T14:00:02;15.90;;;9.52;;
17686;SDS011;8962;52.538;13.266;2022-11-20T14:02:36;24.45;;;11.13;;
17686;SDS011;8962;52.538;13.266;2022-11-20T14:05:03;19.13;;;10.32;;
17686;SDS011;8962;52.538;13.266;2022-11-20T14:07:35;22.15;;;10.85;;
17686;SDS011;8962;52.538;13.266;2022-11-20T14:10:06;18.02;;;10.25;;
17686;SDS011;8962;52.538;13.266;2022-11-20T14:12:47;16.80;;;9.48;;
17686;SDS011;8962;52.538;13.266;2022-11-20T14:15:24;16.98;;;9.93;;
17686;SDS011;8962;52.538;13.266;2022-11-20T14:17:54;16.60;;;9.93;;
17686;SDS011;8962;52.538;13.266;2022-11-20T14:20:21;15.15;;;9.73;;
17686;SDS011;8962;52.538;13.266;2022-11-20T14:22:51;16.65;;;9.60;;
17686;SDS011;8962;52.538;13.266;2022-11-20T14:25:20;19.35;;;10.70;;
17686;SDS011;8962;52.538;13.266;2022-11-20T14:27:54;16.15;;;10.00;;
17686;SDS011;8962;52.538;13.266;2022-11-20T14:30:23;15.98;;;9.52;;
17686;SDS011;8962;52.538;13.266;2022-11-20T14:32:53;17.20;;;10.35;;
17686;SDS011;8962;52.538;13.266;2022-11-20T14:35:24;16.75;;;10.25;;
17686;SDS011;8962;52.538;13.266;2022-11-20T14:37:52;16.33;;;10.05;;
17686;SDS011;8962;52.538;13.266;2022-11-20T14:40:25;16.40;;;10.30;;
17686;SDS011;8962;52.538;13.266;2022-11-20T14:42:58;18.90;;;10.23;;
17686;SDS011;8962;52.538;13.266;2022-11-20T14:45:26;18.50;;;10.23;;
17686;SDS011;8962;52.538;13.266;2022-11-20T14:47:54;15.50;;;9.30;;
17686;SDS011;8962;52.538;13.266;2022-11-20T14:50:24;16.60;;;9.68;;
17686;SDS011;8962;52.538;13.266;2022-11-20T14:52:53;17.75;;;10.82;;
17686;SDS011;8962;52.538;13.266;2022-11-20T14:55:25;16.65;;;10.40;;